Dalhart Municipal Airport
KDHT : now visible

Aeroporto :











RITROVATECI SU...

 
LOGIN :

Iscrizione | Disclaimer

   EN    FR    IT 

 









Sommario :    VFR   VFR Marginale   IFR   IFR Intensivo   IFR Molto Intensivo
Visibilità : 
Base nubi : 
>= 8 km
>= 3000ft
5 / 8 km
1000 / 3000 ft
1500m / 5 km
500 / 1000 ft
800 / 1500m
200 / 500 ft
< 800m
< 200 ft
Simboli :   Temporali  Nebbia  Neve Forte  Precipitazioni Forti  Vento > 20 kt






- Altitudine del aeroporto : 3991 ft


KDHT - Dalhart Municipal

ULTIMO METAR :
  • 250953Z AUTO 33011KT 10SM CLR 19/15 A2996 RMK AO2 SLP076 T01940150

METARs OBSOLETI :
  • 250853Z AUTO 00000KT 10SM CLR 20/15 A2997 RMK AO2 SLP077 T02000150 50008
  • 250753Z AUTO 32005KT 10SM CLR 22/16 A2998 RMK AO2 SLP081 T02170156

TAF KDHT
Valido dal 25 a 06 ore il 26 a 06 ore UTC


250537Z 2506/2606 18011KT P6SM SCT150
FM250800 25010KT P6SM SCT200
FM251100 30010KT P6SM FEW250
FM252300 14012KT P6SM VCSH SCT100
FM260100 06012KT P6SM VCSH SCT100
FIR KZAB / America del Nord



MetMap, La meteo Aeronautica in un colpo d'occhio ! - Copyright ORBIFLY Dicembre 2007 - Disclaimer

ORBIFLY MET'MAP TEAM :

Programmazione e sviluppo : Alexandra Zaïnal
Concezione : Baudouin d'Aumeries
Aiuto per la programmazione : Marc-Olivier Méhu
Supporto tecnico e logistico : Manuel Goepfert
Aiuto per la traduzione : Arnaldo La Scala

Contatto : metmap@orbifly.com




FONTI E CREDITI :

   NOAA       Earth
Advisory